Time;durP1;ratioP1;P1;durP2;ratioP2;P2;SDS_P1;SDS_P2;PMS_P1;PMS_P2;Temp;Humidity;BMP_temperature;BMP_pressure;BME280_temperature;BME280_humidity;BME280_pressure;Samples;Min_cycle;Max_cycle;Signal;HPM_P1;HPM_P2
2023/10/13 00:00:35;;;;;;;5.63;4.40;;;;;;;14.81;100.00;97941.78;6202192;28;20239;-58
2023/10/13 00:03:38;;;;;;;12.13;5.43;;;;;;;14.80;100.00;97942.88;6205241;28;20237;-58
2023/10/13 00:06:42;;;;;;;9.70;4.80;;;;;;;14.81;100.00;97939.91;6204191;28;20741;-59
2023/10/13 00:09:44;;;;;;;8.07;4.93;;;;;;;14.79;100.00;97933.22;6205322;28;20233;-58
2023/10/13 00:12:51;;;;;;;6.30;4.50;;;;;;;14.75;100.00;97924.88;6202281;28;20652;-59
2023/10/13 00:15:58;;;;;;;6.90;4.57;;;;;;;14.83;100.00;97927.06;6206206;28;20294;-58
2023/10/13 00:19:05;;;;;;;6.23;4.43;;;;;;;14.85;100.00;97927.59;6212441;28;20395;-58
2023/10/13 00:22:09;;;;;;;6.63;4.70;;;;;;;14.75;100.00;97916.03;6213873;28;20229;-59
2023/10/13 00:25:19;;;;;;;9.67;5.10;;;;;;;14.82;100.00;97946.09;6207128;28;20237;-59
2023/10/13 00:28:26;;;;;;;6.90;4.57;;;;;;;14.82;100.00;97946.09;6203215;28;20236;-58
2023/10/13 00:31:33;;;;;;;7.73;4.50;;;;;;;14.84;100.00;97946.66;6191419;28;20322;-58
2023/10/13 00:34:37;;;;;;;6.90;5.13;;;;;;;14.82;100.00;97935.34;6207390;28;20228;-56
2023/10/13 00:37:47;;;;;;;8.03;4.57;;;;;;;14.80;100.00;97927.59;6217682;28;20319;-59
2023/10/13 00:40:54;;;;;;;8.53;4.77;;;;;;;14.80;100.00;97926.78;6218808;28;20706;-58
2023/10/13 00:44:05;;;;;;;6.00;4.77;;;;;;;14.79;100.00;97941.25;6200904;28;20232;-57
2023/10/13 00:47:22;;;;;;;7.90;4.63;;;;;;;14.78;100.00;97945.00;6212328;28;20312;-59
2023/10/13 00:50:26;;;;;;;6.23;4.43;;;;;;;14.77;100.00;97935.34;6215457;28;20221;-59
2023/10/13 00:53:40;;;;;;;9.93;5.13;;;;;;;14.77;100.00;97938.03;6214878;28;20294;-58
2023/10/13 00:56:48;;;;;;;8.43;4.93;;;;;;;14.66;100.00;97919.22;6221133;28;20233;-58
2023/10/13 00:59:59;;;;;;;8.63;5.10;;;;;;;14.77;100.00;97938.03;6211217;28;20398;-58
2023/10/13 01:03:06;;;;;;;7.13;4.93;;;;;;;14.76;100.00;97939.09;6212150;28;20238;-58
2023/10/13 01:06:12;;;;;;;11.23;5.47;;;;;;;14.73;100.00;97937.75;6223409;28;20227;-59
2023/10/13 01:09:17;;;;;;;10.97;4.97;;;;;;;14.71;100.00;97943.38;6217903;28;20239;-58
2023/10/13 01:12:24;;;;;;;6.87;4.83;;;;;;;14.68;100.00;97930.50;6209700;28;20250;-58
2023/10/13 01:15:30;;;;;;;9.30;5.00;;;;;;;14.69;100.00;97937.47;6241833;28;20748;-58
2023/10/13 01:18:47;;;;;;;5.93;4.93;;;;;;;14.69;100.00;97945.50;6211418;28;20239;-58
2023/10/13 01:22:01;;;;;;;9.03;5.10;;;;;;;14.71;100.00;97943.38;6213085;28;20595;-58
2023/10/13 01:25:10;;;;;;;7.27;5.13;;;;;;;14.68;100.00;97941.22;6209157;28;20228;-58
2023/10/13 01:28:15;;;;;;;5.47;4.90;;;;;;;14.70;100.00;97938.28;6211783;28;20233;-56
2023/10/13 01:31:26;;;;;;;7.13;5.03;;;;;;;14.73;100.00;97928.88;6210776;28;20232;-59
2023/10/13 01:34:33;;;;;;;5.90;4.47;;;;;;;14.70;100.00;97923.00;6207506;28;20326;-58
2023/10/13 01:37:35;;;;;;;7.33;4.53;;;;;;;14.73;100.00;97921.66;6207653;28;20247;-55
2023/10/13 01:40:38;;;;;;;5.53;4.43;;;;;;;14.71;100.00;97924.59;6218362;28;20236;-54
2023/10/13 01:43:40;;;;;;;7.17;5.00;;;;;;;14.72;100.00;97922.72;6212260;28;20324;-55
2023/10/13 01:46:42;;;;;;;6.60;4.93;;;;;;;14.69;100.00;97923.25;6196314;28;20638;-59
2023/10/13 01:49:49;;;;;;;6.97;4.57;;;;;;;14.69;100.00;97928.63;6198532;28;20383;-58
2023/10/13 01:53:00;;;;;;;5.30;4.30;;;;;;;14.68;100.00;97929.69;6210646;28;20232;-57
2023/10/13 01:56:10;;;;;;;6.23;4.53;;;;;;;14.51;100.00;97908.44;6209981;28;20228;-58
2023/10/13 01:59:13;;;;;;;5.87;3.87;;;;;;;14.67;100.00;97928.06;6209941;28;20220;-55
2023/10/13 02:02:28;;;;;;;5.27;4.20;;;;;;;14.65;100.00;97931.00;6208703;28;20322;-58
2023/10/13 02:05:36;;;;;;;5.10;3.60;;;;;;;14.65;100.00;97932.88;6212263;28;20243;-57
2023/10/13 02:08:42;;;;;;;5.83;4.40;;;;;;;14.64;100.00;97937.44;6213993;28;20375;-59
2023/10/13 02:11:45;;;;;;;6.00;4.20;;;;;;;14.63;100.00;97925.13;6246252;28;20239;-58
2023/10/13 02:14:48;;;;;;;6.70;4.20;;;;;;;14.60;100.00;97928.31;6207098;28;20235;-58
2023/10/13 02:17:51;;;;;;;8.90;4.53;;;;;;;14.56;100.00;97937.13;6202712;28;20311;-58
2023/10/13 02:20:56;;;;;;;7.13;4.30;;;;;;;14.54;100.00;97933.91;6197983;28;20237;-59
2023/10/13 02:24:05;;;;;;;5.60;4.47;;;;;;;14.54;100.00;97932.03;6196650;28;20229;-59
2023/10/13 02:27:13;;;;;;;5.20;4.10;;;;;;;14.45;100.00;97920.16;6216766;28;20232;-58
2023/10/13 02:30:23;;;;;;;6.30;4.27;;;;;;;14.54;100.00;97926.69;6209128;28;20219;-58
2023/10/13 02:33:31;;;;;;;6.30;4.80;;;;;;;14.51;100.00;97921.03;6204383;28;20229;-59
2023/10/13 02:36:46;;;;;;;5.17;4.13;;;;;;;14.50;100.00;97922.91;6188866;28;20229;-59
2023/10/13 02:39:49;;;;;;;6.03;4.00;;;;;;;14.47;100.00;97926.06;6208815;28;20232;-59
2023/10/13 02:42:53;;;;;;;9.70;4.53;;;;;;;14.45;100.00;97917.47;6209037;28;20515;-56
2023/10/13 02:45:59;;;;;;;5.97;4.17;;;;;;;14.41;100.00;97921.75;6213688;28;20232;-59
2023/10/13 02:49:13;;;;;;;8.53;4.33;;;;;;;14.33;100.00;97914.19;6209829;28;20291;-58
2023/10/13 02:52:20;;;;;;;6.10;4.10;;;;;;;14.32;100.00;97929.47;6212327;28;20231;-58
2023/10/13 02:55:27;;;;;;;10.30;4.37;;;;;;;14.30;100.00;97936.97;6216167;28;20313;-59
2023/10/13 02:58:37;;;;;;;12.20;4.30;;;;;;;14.25;100.00;97931.59;6240327;28;20231;-58
2023/10/13 03:01:40;;;;;;;8.17;4.00;;;;;;;14.27;100.00;97944.72;6209043;28;20236;-59
2023/10/13 03:04:51;;;;;;;11.43;4.67;;;;;;;14.27;100.00;97942.84;6216195;28;20247;-59
2023/10/13 03:07:55;;;;;;;6.10;4.27;;;;;;;14.25;100.00;97942.31;6210087;28;20712;-57
2023/10/13 03:10:57;;;;;;;6.63;4.47;;;;;;;14.23;100.00;97944.41;6212804;28;20328;-58
2023/10/13 03:14:06;;;;;;;9.30;4.70;;;;;;;14.20;100.00;97940.41;6207170;28;20232;-57
2023/10/13 03:17:14;;;;;;;6.60;4.43;;;;;;;14.20;100.00;97948.44;6210457;28;20223;-58
2023/10/13 03:20:33;;;;;;;7.27;4.57;;;;;;;14.19;100.00;97940.66;6211847;28;20241;-57
2023/10/13 03:23:45;;;;;;;9.43;4.60;;;;;;;14.15;100.00;97937.69;6216023;28;20709;-59
2023/10/13 03:26:52;;;;;;;8.07;4.10;;;;;;;14.14;100.00;97944.13;6218258;28;20782;-56
2023/10/13 03:29:55;;;;;;;7.07;4.10;;;;;;;14.02;100.00;97921.25;6212631;28;20285;-58
2023/10/13 03:32:57;;;;;;;7.87;4.73;;;;;;;14.12;100.00;97935.50;6238714;28;20270;-59
2023/10/13 03:36:06;;;;;;;8.10;4.33;;;;;;;14.10;100.00;97939.53;6210329;28;20232;-56
2023/10/13 03:39:10;;;;;;;6.80;4.53;;;;;;;14.10;100.00;97945.69;6196416;28;20231;-57
2023/10/13 03:42:18;;;;;;;8.93;4.87;;;;;;;14.11;100.00;97938.47;6208860;28;20236;-58
2023/10/13 03:45:21;;;;;;;7.33;4.30;;;;;;;14.05;100.00;97923.41;6209439;28;21186;-58
2023/10/13 03:51:33;;;;;;;6.90;4.17;;;;;;;14.16;100.00;97943.84;6212599;28;20224;-58
2023/10/13 03:54:35;;;;;;;8.40;3.83;;;;;;;14.21;100.00;97946.56;6200212;28;20254;-58
2023/10/13 03:57:39;;;;;;;7.43;4.47;;;;;;;14.23;100.00;97940.94;6211101;28;20637;-58
2023/10/13 04:00:42;;;;;;;9.43;4.33;;;;;;;14.27;100.00;97942.84;6209114;28;20580;-57
2023/10/13 04:03:57;;;;;;;12.67;4.30;;;;;;;14.25;100.00;97941.50;6211539;28;20720;-58
2023/10/13 04:17:13;;;;;;;7.50;4.00;;;;;;;14.33;100.00;97957.06;6216267;28;20374;-59
2023/10/13 04:20:28;;;;;;;4.93;4.10;;;;;;;14.33;100.00;97954.38;6218111;28;20268;-58
2023/10/13 04:24:08;;;;;;;4.90;3.70;;;;;;;14.35;100.00;97963.00;6211487;28;20785;-58
2023/10/13 04:30:24;;;;;;;9.67;4.30;;;;;;;14.34;100.00;97951.47;6218602;28;20242;-58
2023/10/13 04:36:45;;;;;;;6.60;3.90;;;;;;;14.32;100.00;97936.69;6212394;28;20606;-59
2023/10/13 04:39:56;;;;;;;5.90;3.80;;;;;;;14.40;100.00;97952.31;6249774;28;20931;-57
2023/10/13 04:43:04;;;;;;;5.83;3.60;;;;;;;14.49;100.00;97961.50;6213945;28;20240;-59
2023/10/13 04:46:35;;;;;;;6.13;3.97;;;;;;;14.56;100.00;97961.25;6206562;28;20592;-58
2023/10/13 04:53:01;;;;;;;7.57;4.17;;;;;;;14.57;100.00;97949.47;6211441;28;20240;-58
2023/10/13 04:59:17;;;;;;;6.47;4.30;;;;;;;14.54;100.00;97948.13;6211756;28;20365;-56
2023/10/13 05:06:10;;;;;;;5.27;3.77;;;;;;;14.56;100.00;97964.75;6210947;28;20757;-58
2023/10/13 05:46:35;;;;;;;10.30;3.53;;;;;;;15.30;100.00;97970.94;6216252;28;20240;-57
2023/10/13 05:50:04;;;;;;;10.37;3.73;;;;;;;15.37;99.08;97969.63;6215066;28;21098;-57
2023/10/13 06:29:45;;;;;;;10.60;3.37;;;;;;;15.52;100.00;98005.59;6215828;28;20229;-54
2023/10/13 06:32:49;;;;;;;9.93;4.00;;;;;;;15.50;100.00;98003.19;6201984;28;20236;-54
2023/10/13 06:35:56;;;;;;;5.20;3.63;;;;;;;15.59;100.00;98015.03;6218017;28;20228;-56
2023/10/13 06:39:34;;;;;;;6.60;4.00;;;;;;;15.64;100.00;98015.06;6218268;28;20228;-57
2023/10/13 06:42:21;;;;;;;5.60;3.60;;;;;;;15.66;100.00;98020.16;6214477;28;20309;-57
2023/10/13 06:45:28;;;;;;;12.17;4.30;;;;;;;15.66;100.00;98018.31;6216584;28;20231;-57
2023/10/13 06:48:34;;;;;;;7.97;3.73;;;;;;;15.66;100.00;98029.06;6217736;28;20235;-54
2023/10/13 06:51:40;;;;;;;7.27;3.73;;;;;;;15.64;100.00;98028.50;6220444;28;20228;-57
2023/10/13 06:54:43;;;;;;;7.07;3.60;;;;;;;15.66;100.00;98041.66;6218616;28;20313;-57
2023/10/13 06:57:46;;;;;;;7.20;3.97;;;;;;;15.68;100.00;98029.56;6209115;28;20722;-58
2023/10/13 07:00:55;;;;;;;5.73;3.30;;;;;;;15.69;100.00;98025.81;6217290;28;20806;-54
2023/10/13 07:04:01;;;;;;;5.47;3.57;;;;;;;15.71;100.00;98020.16;6215435;28;20944;-56
2023/10/13 07:07:05;;;;;;;8.53;3.47;;;;;;;15.78;100.00;98023.41;6218406;28;20236;-54
2023/10/13 07:10:11;;;;;;;6.77;3.77;;;;;;;15.76;100.00;98024.75;6212897;28;20582;-54
2023/10/13 07:13:14;;;;;;;11.60;3.87;;;;;;;15.84;100.00;98026.91;6192593;28;20651;-56
2023/10/13 07:16:17;;;;;;;6.33;3.30;;;;;;;15.83;100.00;98036.06;6217082;28;20317;-57
2023/10/13 07:19:30;;;;;;;7.63;3.33;;;;;;;15.71;100.00;98015.63;6226711;28;20237;-57
2023/10/13 07:22:39;;;;;;;3.53;3.07;;;;;;;15.83;100.00;98030.69;6215341;28;20330;-56
2023/10/13 07:25:44;;;;;;;4.63;3.20;;;;;;;15.77;100.00;98010.25;6226909;28;20614;-57
2023/10/13 07:28:46;;;;;;;3.83;2.90;;;;;;;15.86;100.00;98025.59;6246286;28;20251;-58
2023/10/13 07:31:49;;;;;;;5.73;3.40;;;;;;;15.89;100.00;98021.53;6219793;28;20216;-56
2023/10/13 07:34:55;;;;;;;5.07;4.00;;;;;;;15.90;100.00;98021.25;6219401;28;20229;-58
2023/10/13 07:37:59;;;;;;;4.77;3.23;;;;;;;15.92;100.00;98016.44;6206355;28;20716;-56
2023/10/13 07:41:08;;;;;;;4.20;2.87;;;;;;;15.98;100.00;98014.56;6214281;28;20263;-58
2023/10/13 07:44:13;;;;;;;5.20;3.13;;;;;;;16.04;100.00;98024.25;6209691;28;20701;-57
2023/10/13 07:47:17;;;;;;;5.77;3.33;;;;;;;16.08;100.00;98017.25;6214100;28;20323;-54
2023/10/13 07:50:25;;;;;;;7.73;3.30;;;;;;;16.17;100.00;98023.72;6219373;28;20235;-55
2023/10/13 07:53:29;;;;;;;4.73;2.93;;;;;;;16.28;100.00;98021.81;6220072;28;20699;-55
2023/10/13 07:56:32;;;;;;;4.27;3.00;;;;;;;16.32;100.00;98016.72;6223091;28;20231;-57
2023/10/13 07:59:35;;;;;;;5.10;3.17;;;;;;;16.45;100.00;98026.91;6211636;28;20579;-57
2023/10/13 08:02:49;;;;;;;8.60;3.20;;;;;;;16.55;97.85;98031.44;6207762;28;20239;-57
2023/10/13 08:09:40;;;;;;;4.63;3.00;;;;;;;16.83;96.72;98016.63;6189106;28;20230;-57
2023/10/13 08:12:44;;;;;;;3.70;2.77;;;;;;;16.95;94.83;98014.47;6232362;28;20351;-56
2023/10/13 08:15:49;;;;;;;4.70;3.10;;;;;;;17.13;92.66;98019.22;6222939;28;20232;-55
2023/10/13 08:18:53;;;;;;;4.97;3.07;;;;;;;17.32;91.04;98023.97;6223047;28;20592;-58
2023/10/13 08:22:14;;;;;;;4.57;2.53;;;;;;;17.45;91.69;98013.41;6218807;28;20857;-57
2023/10/13 08:26:29;;;;;;;5.03;3.30;;;;;;;17.57;92.02;98017.66;6225156;28;20699;-57
2023/10/13 08:28:54;;;;;;;5.03;3.20;;;;;;;17.69;91.97;98015.44;6226758;28;20285;-57
2023/10/13 08:32:14;;;;;;;2.97;2.63;;;;;;;17.78;92.26;98019.97;6222387;28;20238;-57
2023/10/13 08:35:35;;;;;;;4.87;3.13;;;;;;;17.90;90.72;98022.31;6216926;28;20783;-57
2023/10/13 08:38:50;;;;;;;6.07;3.23;;;;;;;18.00;91.71;98013.34;6220471;28;20238;-56
2023/10/13 08:42:12;;;;;;;4.27;3.37;;;;;;;18.19;90.30;98014.28;6220978;28;20236;-55
2023/10/13 08:48:31;;;;;;;4.70;2.70;;;;;;;18.40;83.08;98019.47;6222950;28;20315;-57
2023/10/13 08:51:49;;;;;;;6.83;2.67;;;;;;;18.53;79.99;98024.22;6221843;28;20227;-58
2023/10/13 08:55:12;;;;;;;6.83;3.10;;;;;;;18.68;76.72;98024.09;6217315;28;20703;-57
2023/10/13 08:58:14;;;;;;;5.53;2.77;;;;;;;18.77;77.63;98027.78;6219199;28;20532;-57
2023/10/13 09:02:15;;;;;;;3.93;2.80;;;;;;;18.88;75.90;98024.97;6223981;28;20238;-57
2023/10/13 09:04:44;;;;;;;6.97;3.00;;;;;;;19.01;77.33;98024.25;6212226;28;20282;-58
2023/10/13 09:07:47;;;;;;;5.27;2.97;;;;;;;19.11;78.97;98026.03;6212327;28;20258;-55
2023/10/13 09:11:13;;;;;;;6.73;2.97;;;;;;;19.19;76.31;98022.69;6223442;28;20240;-56
2023/10/13 09:14:36;;;;;;;4.00;2.70;;;;;;;19.46;72.78;98027.50;6217489;28;20623;-58
2023/10/13 09:21:17;;;;;;;5.30;3.07;;;;;;;19.90;70.48;98023.63;6209682;28;20236;-57
2023/10/13 09:24:29;;;;;;;5.60;2.90;;;;;;;20.02;68.77;98016.69;6222030;28;20693;-56
2023/10/13 09:27:33;;;;;;;5.83;2.70;;;;;;;20.07;67.35;98007.69;6226264;28;20585;-58
2023/10/13 09:30:43;;;;;;;6.30;2.87;;;;;;;20.15;70.02;98017.84;6216984;28;20689;-56
2023/10/13 09:33:55;;;;;;;4.47;2.90;;;;;;;20.22;71.84;98012.84;6223872;28;20663;-57
2023/10/13 09:37:03;;;;;;;5.80;2.80;;;;;;;20.39;70.01;98016.88;6223648;28;20738;-56
2023/10/13 09:40:24;;;;;;;3.90;2.37;;;;;;;20.47;68.32;98000.00;6219393;28;20229;-57
2023/10/13 09:43:30;;;;;;;5.53;3.10;;;;;;;20.73;67.60;98008.47;6221170;28;20239;-56
2023/10/13 09:46:36;;;;;;;4.40;3.10;;;;;;;20.82;67.88;98012.88;6216640;28;20293;-57
2023/10/13 09:49:49;;;;;;;6.50;2.63;;;;;;;20.85;67.22;98015.00;6219714;28;20232;-56
2023/10/13 09:52:53;;;;;;;4.90;2.97;;;;;;;20.88;66.98;98008.16;6215418;28;20242;-56
2023/10/13 09:56:11;;;;;;;4.37;2.63;;;;;;;20.94;65.26;98000.78;6220501;28;20726;-58
2023/10/13 09:59:22;;;;;;;6.70;2.80;;;;;;;20.98;65.77;98001.75;6222610;28;20244;-57
2023/10/13 10:02:25;;;;;;;6.27;2.90;;;;;;;21.01;67.42;97998.44;6226304;28;20735;-56
2023/10/13 10:05:34;;;;;;;4.70;2.80;;;;;;;21.07;68.72;97989.91;6218479;28;20228;-57
2023/10/13 10:08:48;;;;;;;3.70;2.37;;;;;;;21.15;63.12;97995.72;6239531;28;20594;-57
2023/10/13 10:12:25;;;;;;;10.00;3.17;;;;;;;21.36;59.56;97991.50;6217775;28;20223;-58
2023/10/13 10:15:43;;;;;;;4.43;2.77;;;;;;;21.50;64.46;97989.56;6221917;28;20347;-58
2023/10/13 10:18:46;;;;;;;6.93;2.70;;;;;;;21.60;64.78;97980.41;6225392;28;20232;-58
2023/10/13 10:21:48;;;;;;;6.40;2.50;;;;;;;21.73;62.62;97976.06;6222904;28;20281;-55
2023/10/13 10:25:02;;;;;;;9.53;2.53;;;;;;;21.82;62.92;97979.59;6221276;28;20243;-57
2023/10/13 10:28:07;;;;;;;3.63;2.53;;;;;;;21.87;58.52;97984.91;6223789;28;20219;-57
2023/10/13 10:31:14;;;;;;;4.27;2.80;;;;;;;21.94;57.52;97977.16;6221281;28;20696;-57
2023/10/13 10:34:19;;;;;;;6.87;2.83;;;;;;;21.97;57.93;97968.41;6243471;28;20322;-58
2023/10/13 10:37:25;;;;;;;8.47;2.40;;;;;;;22.04;57.75;97970.69;6211919;28;20286;-56
2023/10/13 10:40:46;;;;;;;5.30;2.90;;;;;;;22.02;56.71;97953.91;6204044;28;20232;-59
2023/10/13 10:43:49;;;;;;;4.47;2.40;;;;;;;22.17;55.18;97958.16;6203628;28;20247;-58
2023/10/13 10:46:57;;;;;;;7.57;3.60;;;;;;;22.22;54.65;97961.59;6192378;28;20407;-56
2023/10/13 10:50:07;;;;;;;8.00;3.80;;;;;;;22.27;53.87;97958.72;6195074;28;20237;-58
2023/10/13 10:53:10;;;;;;;6.43;3.63;;;;;;;22.32;56.10;97955.88;6204078;28;20356;-56
2023/10/13 10:56:20;;;;;;;4.70;3.00;;;;;;;22.21;54.39;97940.16;6220344;28;20726;-58
2023/10/13 10:59:25;;;;;;;5.03;3.07;;;;;;;22.47;56.69;97956.59;6227063;28;20740;-57
2023/10/13 11:02:31;;;;;;;4.53;2.90;;;;;;;22.56;55.17;97949.25;6207650;28;20236;-57
2023/10/13 11:05:46;;;;;;;6.60;2.80;;;;;;;22.54;54.18;97944.16;6201712;28;20641;-57
2023/10/13 11:08:52;;;;;;;7.80;3.10;;;;;;;22.61;52.92;97941.81;6203277;28;20743;-57
2023/10/13 11:11:57;;;;;;;7.85;2.58;;;;;;;22.60;55.65;97942.09;6192011;28;20228;-57
2023/10/13 11:15:44;;;;;;;5.50;2.87;;;;;;;22.66;53.94;97933.50;6201476;28;20240;-58
2023/10/13 11:18:40;;;;;;;5.57;3.23;;;;;;;22.73;53.31;97924.91;6200608;28;20398;-57
2023/10/13 11:21:43;;;;;;;8.17;3.40;;;;;;;22.85;50.61;97930.50;6200390;28;20240;-58
2023/10/13 11:24:45;;;;;;;7.35;2.90;;;;;;;22.87;51.19;97909.28;6204110;28;20255;-58
2023/10/13 11:30:52;;;;;;;7.35;3.28;;;;;;;23.06;52.26;97919.09;6204548;28;20714;-58
2023/10/13 11:33:56;;;;;;;5.20;2.67;;;;;;;23.13;52.36;97920.22;6198100;28;20270;-55
2023/10/13 11:37:28;;;;;;;6.63;3.05;;;;;;;23.19;51.95;97915.44;6204219;28;20294;-57
2023/10/13 11:40:43;;;;;;;5.63;2.47;;;;;;;23.18;52.72;97906.47;6205165;28;20239;-57
2023/10/13 11:46:57;;;;;;;5.97;3.42;;;;;;;23.21;51.31;97910.50;6204256;28;20233;-57
2023/10/13 11:49:59;;;;;;;5.82;2.95;;;;;;;23.21;51.58;97898.81;6204887;28;20216;-54
2023/10/13 11:53:07;;;;;;;5.55;2.67;;;;;;;23.25;49.49;97897.03;6205012;28;20224;-55
2023/10/13 11:56:09;;;;;;;7.45;2.92;;;;;;;23.31;49.48;97893.88;6202121;28;20229;-57
2023/10/13 11:59:17;;;;;;;6.13;2.90;;;;;;;23.33;49.28;97890.81;6206184;28;20327;-57
2023/10/13 12:05:48;;;;;;;8.88;3.15;;;;;;;23.49;47.26;97881.03;6198055;28;20235;-57
2023/10/13 12:08:52;;;;;;;6.47;3.50;;;;;;;23.43;49.61;97871.47;6203408;28;20241;-57
2023/10/13 12:12:00;;;;;;;4.38;2.70;;;;;;;23.29;51.75;97868.91;6205781;28;20624;-56
2023/10/13 12:15:09;;;;;;;8.77;3.30;;;;;;;23.32;50.53;97868.28;6201214;28;20221;-57
2023/10/13 12:18:14;;;;;;;8.30;3.45;;;;;;;23.29;51.07;97868.09;6203896;28;20221;-58
2023/10/13 12:21:19;;;;;;;4.50;2.85;;;;;;;23.26;51.30;97857.88;6201901;28;20229;-58
2023/10/13 12:24:39;;;;;;;6.25;3.33;;;;;;;23.28;50.05;97851.00;6201207;28;20236;-54
2023/10/13 12:27:50;;;;;;;5.35;2.92;;;;;;;23.27;50.54;97851.31;6207514;28;20228;-58
2023/10/13 12:31:01;;;;;;;8.80;3.25;;;;;;;23.24;51.47;97852.75;6209296;28;20735;-57
2023/10/13 12:34:14;;;;;;;6.28;3.00;;;;;;;23.26;52.36;97857.88;6204306;28;20237;-57
2023/10/13 12:54:38;;;;;;;12.05;3.60;;;;;;;23.01;48.18;97835.03;6179131;28;20233;-57
2023/10/13 12:57:43;;;;;;;4.97;3.15;;;;;;;23.04;48.97;97829.72;6166341;28;20230;-57
2023/10/13 13:00:48;;;;;;;7.75;3.55;;;;;;;23.13;49.45;97825.09;6148511;28;20240;-57
2023/10/13 13:03:55;;;;;;;7.40;3.42;;;;;;;23.11;50.43;97830.06;6167652;28;20668;-57
2023/10/13 13:06:58;;;;;;;7.55;2.70;;;;;;;23.09;51.78;97821.41;6165101;28;20225;-57
2023/10/13 13:10:00;;;;;;;3.65;2.40;;;;;;;22.96;52.64;97805.28;6179491;28;20229;-57
2023/10/13 13:13:04;;;;;;;7.03;2.70;;;;;;;23.04;53.00;97816.13;6166974;28;20235;-56
2023/10/13 13:16:07;;;;;;;7.28;3.33;;;;;;;23.09;52.14;97809.75;6189576;28;20683;-57
2023/10/13 13:19:10;;;;;;;10.23;3.47;;;;;;;23.08;51.31;97806.22;6204921;28;20239;-57
2023/10/13 13:22:12;;;;;;;7.65;2.70;;;;;;;23.16;50.42;97801.94;6207049;28;20623;-57
2023/10/13 13:25:17;;;;;;;4.60;2.78;;;;;;;23.21;50.41;97807.19;6211533;28;20236;-57
2023/10/13 13:28:23;;;;;;;4.75;2.67;;;;;;;23.10;53.54;97795.88;6213318;28;20248;-58
2023/10/13 13:31:26;;;;;;;6.45;3.08;;;;;;;22.99;56.04;97802.72;6210532;28;20557;-57
2023/10/13 13:34:28;;;;;;;7.15;2.92;;;;;;;22.85;56.32;97794.69;6208413;28;20943;-57
2023/10/13 13:37:31;;;;;;;8.68;3.00;;;;;;;22.83;55.21;97796.94;6205843;28;20240;-57
2023/10/13 13:40:34;;;;;;;3.53;2.63;;;;;;;22.71;55.02;97794.06;6210254;28;20236;-56
2023/10/13 13:43:37;;;;;;;7.38;3.42;;;;;;;22.64;54.62;97789.09;6212149;28;20572;-57
2023/10/13 13:46:43;;;;;;;8.60;3.30;;;;;;;22.62;53.71;97790.53;6209367;28;20232;-58
2023/10/13 13:49:51;;;;;;;4.93;3.20;;;;;;;22.75;51.69;97784.13;6210701;28;20574;-59
2023/10/13 13:52:57;;;;;;;9.65;3.38;;;;;;;22.72;52.84;97773.94;6208634;28;20731;-58
2023/10/13 13:56:03;;;;;;;8.65;4.13;;;;;;;22.70;54.92;97775.34;6206944;28;20243;-58
2023/10/13 13:59:09;;;;;;;8.80;3.97;;;;;;;22.64;54.82;97775.50;6216214;28;20231;-57
2023/10/13 14:02:20;;;;;;;4.70;2.88;;;;;;;22.60;55.21;97765.59;6205469;28;20236;-58
2023/10/13 14:05:23;;;;;;;5.75;3.13;;;;;;;22.55;55.26;97771.97;6208002;28;20233;-58
2023/10/13 14:08:27;;;;;;;5.50;3.13;;;;;;;22.50;56.38;97771.34;6200873;28;20236;-58
2023/10/13 14:14:49;;;;;;;8.30;3.17;;;;;;;22.32;55.67;97763.16;6209350;28;20570;-58
2023/10/13 14:17:52;;;;;;;10.20;3.30;;;;;;;22.18;57.95;97757.06;6211930;28;20259;-58
2023/10/13 14:20:56;;;;;;;7.87;3.10;;;;;;;22.08;57.60;97755.41;6211163;28;20225;-58
2023/10/13 14:24:00;;;;;;;4.97;3.10;;;;;;;22.05;59.86;97747.09;6210489;28;20241;-57
2023/10/13 14:27:17;;;;;;;10.53;3.43;;;;;;;21.94;60.42;97745.78;6230521;28;20230;-56
2023/10/13 14:30:20;;;;;;;7.43;3.10;;;;;;;21.85;60.33;97740.31;6201220;28;20215;-58
2023/10/13 14:33:25;;;;;;;9.90;3.97;;;;;;;21.85;62.46;97737.63;6210011;28;20293;-58
2023/10/13 14:36:34;;;;;;;12.33;3.50;;;;;;;21.73;64.16;97735.50;6206325;28;20236;-56
2023/10/13 14:39:37;;;;;;;6.57;3.60;;;;;;;21.62;63.14;97736.88;6207552;28;20762;-57
2023/10/13 14:42:43;;;;;;;6.50;3.97;;;;;;;21.48;65.41;97731.56;6206215;28;20734;-57
2023/10/13 14:45:45;;;;;;;6.40;3.20;;;;;;;21.31;68.04;97731.47;6214385;28;20999;-58
2023/10/13 14:48:48;;;;;;;9.17;3.63;;;;;;;21.17;69.06;97736.91;6210281;28;20295;-56
2023/10/13 14:51:51;;;;;;;7.33;3.30;;;;;;;21.12;68.56;97737.03;6193155;28;20233;-60
2023/10/13 14:54:56;;;;;;;7.47;3.20;;;;;;;20.99;70.28;97730.59;6201920;28;20302;-59
2023/10/13 14:57:58;;;;;;;9.53;3.57;;;;;;;20.79;72.08;97731.91;6213319;28;20326;-57
2023/10/13 15:01:00;;;;;;;5.10;3.23;;;;;;;20.69;72.33;97725.91;6215126;28;20715;-57
2023/10/13 15:04:04;;;;;;;8.10;3.77;;;;;;;20.51;72.49;97727.66;6209860;28;20589;-58
2023/10/13 15:07:07;;;;;;;9.83;3.50;;;;;;;20.40;74.17;97726.28;6217766;28;20232;-58
2023/10/13 15:10:14;;;;;;;15.70;4.03;;;;;;;20.19;75.45;97732.09;6211846;28;20260;-58
2023/10/13 15:13:18;;;;;;;6.77;3.60;;;;;;;20.12;74.43;97729.00;6205868;28;20225;-56
2023/10/13 15:16:23;;;;;;;6.27;3.67;;;;;;;20.05;73.04;97725.94;6213521;28;20228;-57
2023/10/13 15:19:25;;;;;;;7.40;3.23;;;;;;;19.92;74.12;97724.03;6210704;28;20249;-57
2023/10/13 15:22:28;;;;;;;11.60;4.20;;;;;;;19.76;74.64;97720.84;6207753;28;20232;-58
2023/10/13 15:25:38;;;;;;;9.00;3.60;;;;;;;19.64;74.32;97720.50;6206036;28;20680;-58
2023/10/13 15:28:55;;;;;;;8.80;3.47;;;;;;;19.49;75.16;97722.38;6213444;28;20340;-58
2023/10/13 15:35:01;;;;;;;10.63;3.30;;;;;;;19.17;77.10;97717.81;6209369;28;20239;-58
2023/10/13 15:38:04;;;;;;;4.70;3.23;;;;;;;19.03;78.27;97714.28;6208394;28;20239;-57
2023/10/13 15:41:08;;;;;;;10.37;4.10;;;;;;;18.85;78.95;97712.41;6207682;28;20228;-57
2023/10/13 15:44:13;;;;;;;7.10;4.27;;;;;;;18.72;79.65;97705.88;6213667;28;20240;-58
2023/10/13 15:47:15;;;;;;;11.83;3.70;;;;;;;18.45;81.17;97699.22;6208059;28;20739;-58
2023/10/13 15:50:20;;;;;;;9.03;3.90;;;;;;;18.37;82.06;97701.75;6211612;28;20221;-60
2023/10/13 15:53:25;;;;;;;11.00;4.10;;;;;;;18.15;81.16;97688.84;6194400;28;20781;-57
2023/10/13 15:56:27;;;;;;;10.07;4.17;;;;;;;18.05;83.72;97704.06;6210036;28;20720;-58
2023/10/13 15:59:29;;;;;;;9.23;3.80;;;;;;;17.90;82.91;97690.00;6210265;28;20231;-58
2023/10/13 16:02:31;;;;;;;8.80;3.63;;;;;;;17.79;83.95;97689.31;6215940;28;20719;-58
2023/10/13 16:05:34;;;;;;;11.13;3.90;;;;;;;17.62;84.88;97697.81;6210182;28;20405;-56
2023/10/13 16:08:38;;;;;;;9.23;4.20;;;;;;;17.52;85.58;97708.72;6212646;28;20244;-58
2023/10/13 16:11:42;;;;;;;8.00;3.90;;;;;;;17.42;86.21;97693.47;6215203;28;20719;-58
2023/10/13 16:14:44;;;;;;;7.93;3.83;;;;;;;17.27;86.87;97701.69;6221507;28;20711;-59
2023/10/13 16:17:46;;;;;;;7.00;3.97;;;;;;;17.06;87.61;97678.75;6216137;28;20232;-58
2023/10/13 16:20:50;;;;;;;10.27;4.03;;;;;;;17.04;88.36;97689.78;6215611;28;20228;-58
2023/10/13 16:23:53;;;;;;;7.23;3.60;;;;;;;16.91;89.12;97699.34;6216085;28;20240;-57
2023/10/13 16:26:58;;;;;;;14.50;4.03;;;;;;;16.80;89.85;97687.06;6212386;28;20256;-58
2023/10/13 16:30:01;;;;;;;10.77;4.03;;;;;;;16.67;90.34;97688.47;6214629;28;20232;-58
2023/10/13 16:33:03;;;;;;;8.37;4.27;;;;;;;16.57;90.97;97688.53;6223527;28;20226;-58
2023/10/13 16:36:09;;;;;;;8.17;4.10;;;;;;;16.41;91.75;97674.41;6216949;28;20298;-59
2023/10/13 16:39:14;;;;;;;10.87;4.10;;;;;;;16.34;92.76;97683.84;6213614;28;20217;-56
2023/10/13 16:42:18;;;;;;;5.37;4.10;;;;;;;16.24;93.39;97682.84;6214459;28;20244;-58
2023/10/13 16:45:25;;;;;;;9.03;4.27;;;;;;;16.20;93.39;97678.28;6194768;28;20236;-58
2023/10/13 16:48:27;;;;;;;6.77;4.13;;;;;;;16.12;93.85;97681.56;6200303;28;20271;-59
2023/10/13 16:51:30;;;;;;;9.90;4.47;;;;;;;16.07;93.53;97677.03;6197265;28;20250;-58
2023/10/13 16:54:35;;;;;;;8.77;3.80;;;;;;;15.93;94.13;97665.28;6192814;28;20236;-58
2023/10/13 16:57:38;;;;;;;7.97;4.30;;;;;;;15.92;94.30;97669.06;6193747;28;20243;-58
2023/10/13 17:00:46;;;;;;;12.80;4.33;;;;;;;15.81;95.50;97671.00;6191433;28;20244;-58
2023/10/13 17:03:52;;;;;;;9.63;4.40;;;;;;;15.77;95.81;97669.13;6202444;28;20283;-59